createdAt,value
2022-08-28T00:16:21.039Z,58.72
2022-08-28T00:19:40.117Z,58.57
2022-08-28T00:22:37.703Z,58.70
2022-08-28T01:18:23.056Z,58.31
2022-08-28T01:31:06.721Z,58.31
2022-08-28T01:34:03.225Z,58.27
2022-08-28T01:36:57.089Z,58.23
2022-08-28T01:39:48.319Z,58.43
2022-08-28T01:42:48.858Z,58.32
2022-08-28T01:45:53.937Z,58.45
2022-08-28T01:48:33.550Z,58.25
2022-08-28T01:54:03.787Z,58.28
2022-08-28T01:56:53.148Z,58.33
2022-08-28T01:59:49.360Z,58.26
2022-08-28T02:06:05.924Z,58.14
2022-08-28T02:09:02.077Z,58.42
2022-08-28T02:12:32.666Z,58.44
2022-08-28T02:14:41.982Z,58.23
2022-08-28T02:17:21.597Z,58.32
2022-08-28T02:20:11.170Z,58.38
2022-08-28T02:22:57.885Z,58.43
2022-08-28T02:25:32.316Z,58.05
2022-08-28T02:28:21.002Z,58.36
2022-08-28T02:31:14.715Z,58.27
2022-08-28T02:34:11.114Z,58.21
2022-08-28T02:37:12.985Z,58.27
2022-08-28T02:39:59.479Z,58.27
2022-08-28T02:42:36.247Z,58.17
2022-08-28T02:45:28.285Z,58.38
2022-08-28T02:51:36.007Z,58.05
2022-08-28T02:54:41.155Z,58.34
2022-08-28T02:57:53.645Z,58.21
2022-08-28T03:00:45.815Z,58.34
2022-08-28T03:03:45.371Z,58.16
2022-08-28T03:06:54.364Z,58.20
2022-08-28T03:09:42.351Z,58.18
2022-08-28T03:12:42.623Z,58.29
2022-08-28T03:15:57.371Z,58.28
2022-08-28T03:22:04.293Z,58.21
2022-08-28T03:41:47.178Z,58.53
2022-08-28T03:49:35.330Z,58.06
2022-08-28T04:24:22.923Z,58.13
2022-08-28T04:29:57.427Z,58.00
2022-08-28T04:33:01.916Z,58.06
2022-08-28T04:37:03.304Z,58.03
2022-08-28T04:49:25.946Z,58.10
2022-08-28T04:52:26.569Z,57.99
2022-08-28T05:02:58.250Z,58.09
2022-08-28T05:06:07.160Z,58.08
2022-08-28T05:09:11.244Z,58.18
2022-08-28T05:13:20.707Z,58.28
2022-08-28T05:15:53.972Z,57.97
2022-08-28T05:21:32.468Z,57.89
2022-08-28T05:24:53.307Z,57.94
2022-08-28T05:27:25.977Z,57.92
2022-08-28T05:30:48.581Z,57.94
2022-08-28T05:33:38.779Z,57.89
2022-08-28T05:36:15.454Z,57.94
2022-08-28T05:39:28.597Z,57.83
2022-08-28T05:42:01.394Z,57.73
2022-08-28T05:44:58.363Z,57.83
2022-08-28T05:48:17.899Z,57.84
2022-08-28T05:50:36.878Z,57.76
2022-08-28T05:53:30.458Z,57.97
2022-08-28T05:58:03.862Z,57.78
2022-08-28T06:02:25.164Z,58.20
2022-08-28T06:05:03.766Z,57.96
2022-08-28T06:51:09.881Z,58.02
2022-08-28T07:01:50.791Z,58.00
2022-08-28T07:05:42.783Z,58.07
2022-08-28T07:08:04.354Z,57.90
2022-08-28T07:20:30.073Z,57.98
2022-08-28T07:23:29.009Z,57.90
